Time;durP1;ratioP1;P1;durP2;ratioP2;P2;SDS_P1;SDS_P2;PMS_P1;PMS_P2;Temp;Humidity;BMP_temperature;BMP_pressure;BME280_temperature;BME280_humidity;BME280_pressure;Samples;Min_cycle;Max_cycle;Signal;HPM_P1;HPM_P2
2021/11/26 00:02:20;;;;;;;11.17;3.03;;;4.10;92.80;;;;;;5038349;28;20255;-89
2021/11/26 00:04:47;;;;;;;9.77;3.00;;;4.10;92.80;;;;;;5038901;28;20172;-89
2021/11/26 00:07:12;;;;;;;7.77;2.20;;;4.10;92.80;;;;;;5038152;28;20597;-89
2021/11/26 00:09:38;;;;;;;7.20;2.37;;;4.10;92.80;;;;;;5039027;28;20238;-86
2021/11/26 00:12:05;;;;;;;7.67;2.00;;;4.10;92.60;;;;;;5057830;28;20168;-88
2021/11/26 00:14:33;;;;;;;7.13;1.80;;;4.10;92.50;;;;;;5039960;28;20183;-88
2021/11/26 00:17:02;;;;;;;3.10;1.20;;;4.20;92.40;;;;;;5040319;28;20177;-88
2021/11/26 00:19:28;;;;;;;6.70;1.53;;;4.20;92.20;;;;;;5039564;28;20581;-86
2021/11/26 00:21:54;;;;;;;8.70;1.50;;;4.20;92.20;;;;;;5058000;28;20180;-88
2021/11/26 00:24:20;;;;;;;9.93;1.90;;;4.30;92.20;;;;;;5040047;28;20180;-87
2021/11/26 00:26:48;;;;;;;9.03;2.00;;;4.30;92.30;;;;;;5039501;28;20176;-87
2021/11/26 00:29:14;;;;;;;9.87;1.90;;;4.20;92.40;;;;;;5060390;28;20203;-89
2021/11/26 00:31:40;;;;;;;5.83;1.50;;;4.30;92.50;;;;;;5061406;28;20183;-88
2021/11/26 00:34:06;;;;;;;8.43;2.07;;;4.30;92.50;;;;;;5042870;28;20187;-88
2021/11/26 00:36:32;;;;;;;7.53;1.97;;;4.30;92.50;;;;;;5043303;28;20185;-88
2021/11/26 00:38:58;;;;;;;11.10;2.30;;;4.30;92.30;;;;;;5043709;28;20213;-88
2021/11/26 00:41:24;;;;;;;10.47;2.10;;;4.30;92.60;;;;;;5043625;28;20237;-87
2021/11/26 00:43:50;;;;;;;10.87;2.33;;;4.30;92.60;;;;;;5043613;28;20271;-87
2021/11/26 00:46:17;;;;;;;10.57;2.73;;;4.30;92.50;;;;;;5043560;28;20176;-87
2021/11/26 00:48:42;;;;;;;9.67;2.27;;;4.30;92.60;;;;;;5043906;28;20176;-88
2021/11/26 00:51:08;;;;;;;6.00;2.10;;;4.30;92.70;;;;;;5043492;28;20176;-89
2021/11/26 00:53:34;;;;;;;10.43;2.60;;;4.30;92.80;;;;;;5043864;28;20226;-88
2021/11/26 00:55:59;;;;;;;11.23;2.67;;;4.20;92.80;;;;;;5043921;28;20659;-89
2021/11/26 00:58:25;;;;;;;7.23;2.30;;;4.20;93.00;;;;;;5044479;28;20684;-88
2021/11/26 01:00:51;;;;;;;7.27;2.37;;;4.20;93.00;;;;;;5062791;28;20197;-88
2021/11/26 01:03:17;;;;;;;7.53;2.30;;;4.10;92.90;;;;;;5061504;28;20250;-88
2021/11/26 01:05:42;;;;;;;8.27;3.40;;;4.20;92.80;;;;;;5043243;28;20195;-88
2021/11/26 01:08:08;;;;;;;10.80;1.93;;;4.10;92.80;;;;;;5043539;28;20186;-88
2021/11/26 01:10:34;;;;;;;8.37;2.23;;;4.20;92.70;;;;;;5061955;23;20230;-87
2021/11/26 01:13:00;;;;;;;5.83;2.30;;;4.20;92.70;;;;;;5037556;28;20179;-87
2021/11/26 01:15:29;;;;;;;9.73;2.20;;;4.20;92.50;;;;;;5055379;28;20175;-87
2021/11/26 01:17:55;;;;;;;7.90;2.13;;;4.30;92.60;;;;;;5055434;28;20197;-87
2021/11/26 01:20:25;;;;;;;16.70;2.63;;;4.30;92.50;;;;;;5055213;28;20624;-87
2021/11/26 01:22:51;;;;;;;6.50;2.23;;;4.30;92.50;;;;;;5055481;28;20541;-87
2021/11/26 01:25:18;;;;;;;8.43;2.13;;;4.30;92.70;;;;;;5055439;28;20207;-88
2021/11/26 01:27:44;;;;;;;11.83;2.50;;;4.20;92.70;;;;;;5055181;28;20177;-87
2021/11/26 01:30:22;;;;;;;7.00;2.33;;;4.20;92.60;;;;;;5037297;28;20279;-87
2021/11/26 01:32:49;;;;;;;10.70;2.50;;;4.30;92.50;;;;;;5037245;28;20552;-87
2021/11/26 01:35:15;;;;;;;8.00;2.30;;;4.30;92.50;;;;;;5054992;28;20176;-87
2021/11/26 01:37:40;;;;;;;8.50;2.43;;;4.20;92.60;;;;;;5037005;28;20202;-88
2021/11/26 01:40:07;;;;;;;10.83;2.50;;;4.10;92.60;;;;;;5036354;28;20192;-87
2021/11/26 01:42:33;;;;;;;10.93;3.23;;;4.10;92.70;;;;;;5054850;28;20309;-87
2021/11/26 01:44:59;;;;;;;12.40;3.03;;;4.10;92.70;;;;;;5054805;28;20214;-87
2021/11/26 01:47:25;;;;;;;10.10;3.10;;;4.10;92.60;;;;;;5036939;28;20272;-87
2021/11/26 01:49:51;;;;;;;7.20;3.50;;;4.10;92.60;;;;;;5036810;28;20271;-87
2021/11/26 01:52:17;;;;;;;13.60;4.00;;;4.00;92.60;;;;;;5036821;28;20173;-87
2021/11/26 01:54:43;;;;;;;13.03;4.40;;;4.00;92.70;;;;;;5036867;28;20547;-88
2021/11/26 01:57:09;;;;;;;7.77;3.90;;;4.00;92.70;;;;;;5036775;28;20690;-87
2021/11/26 01:59:35;;;;;;;18.83;4.00;;;4.00;92.70;;;;;;5054399;28;20610;-87
2021/11/26 02:02:01;;;;;;;10.73;4.67;;;4.00;92.90;;;;;;5036578;28;20172;-88
2021/11/26 02:04:26;;;;;;;11.60;5.07;;;4.00;92.90;;;;;;5036583;28;20211;-88
2021/11/26 02:06:52;;;;;;;18.03;5.33;;;4.00;92.90;;;;;;5054606;28;20309;-88
2021/11/26 02:09:18;;;;;;;16.20;5.20;;;4.00;92.90;;;;;;5054325;28;20180;-88
2021/11/26 02:11:43;;;;;;;16.63;5.83;;;4.00;92.90;;;;;;5036289;28;20222;-85
2021/11/26 02:14:10;;;;;;;13.23;5.33;;;4.00;93.00;;;;;;5036405;28;20176;-85
2021/11/26 02:16:48;;;;;;;10.63;5.47;;;4.00;93.00;;;;;;5054164;28;20178;-85
2021/11/26 02:19:13;;;;;;;14.87;5.37;;;4.10;93.10;;;;;;5053997;28;20196;-85
2021/11/26 02:21:41;;;;;;;13.20;5.87;;;4.10;93.10;;;;;;5036251;28;20288;-85
2021/11/26 02:24:07;;;;;;;20.07;7.20;;;4.10;93.00;;;;;;5054073;28;20576;-85
2021/11/26 02:26:42;;;;;;;12.37;5.50;;;4.10;93.00;;;;;;5036525;28;20176;-85
2021/11/26 02:29:09;;;;;;;9.63;5.10;;;4.00;92.90;;;;;;5036222;28;20222;-85
2021/11/26 02:31:35;;;;;;;9.70;6.00;;;4.10;92.90;;;;;;5036036;28;20196;-85
2021/11/26 02:34:01;;;;;;;12.40;5.23;;;4.10;92.90;;;;;;5036061;28;20556;-85
2021/11/26 02:36:26;;;;;;;13.93;4.90;;;4.00;92.90;;;;;;5053838;28;20173;-85
2021/11/26 02:38:52;;;;;;;10.83;5.13;;;4.00;92.90;;;;;;5054034;28;20269;-85
2021/11/26 02:41:18;;;;;;;11.47;4.97;;;4.00;93.00;;;;;;5035776;28;20192;-86
2021/11/26 02:43:44;;;;;;;7.60;4.83;;;4.00;93.10;;;;;;5036040;28;20172;-86
2021/11/26 02:46:10;;;;;;;16.60;4.87;;;4.10;93.10;;;;;;5036385;28;20644;-86
2021/11/26 02:48:35;;;;;;;11.73;4.60;;;4.10;93.10;;;;;;5035794;28;20180;-86
2021/11/26 02:51:01;;;;;;;13.10;4.70;;;4.00;93.10;;;;;;5035014;28;20200;-85
2021/11/26 02:53:27;;;;;;;10.80;4.93;;;4.10;93.10;;;;;;5035685;28;20172;-85
2021/11/26 02:55:52;;;;;;;15.00;4.70;;;4.10;93.10;;;;;;5035693;28;20186;-86
2021/11/26 02:58:18;;;;;;;11.03;4.87;;;4.00;93.10;;;;;;5035617;28;20196;-86
2021/11/26 03:00:48;;;;;;;10.70;4.80;;;4.00;93.20;;;;;;5053388;28;20184;-85
2021/11/26 03:03:14;;;;;;;8.50;5.30;;;4.00;93.10;;;;;;5035587;28;20271;-86
2021/11/26 03:05:40;;;;;;;11.73;4.73;;;4.00;93.20;;;;;;5035567;28;20250;-86
2021/11/26 03:08:07;;;;;;;8.07;4.90;;;4.00;93.30;;;;;;5035622;28;20174;-85
2021/11/26 03:10:33;;;;;;;7.10;4.60;;;4.00;93.30;;;;;;5053094;28;20286;-85
2021/11/26 03:13:02;;;;;;;11.83;5.57;;;4.00;93.40;;;;;;5035553;28;20264;-86
2021/11/26 03:15:29;;;;;;;10.77;4.90;;;4.00;93.40;;;;;;5053240;28;20302;-86
2021/11/26 03:17:55;;;;;;;8.17;4.33;;;4.00;93.40;;;;;;5035418;28;20212;-86
2021/11/26 03:20:22;;;;;;;8.17;4.43;;;4.00;93.40;;;;;;5035415;28;20221;-86
2021/11/26 03:22:48;;;;;;;8.30;4.20;;;3.90;93.50;;;;;;5035403;28;20640;-86
2021/11/26 03:25:15;;;;;;;7.50;4.50;;;3.90;93.50;;;;;;5035499;28;20183;-86
2021/11/26 03:27:41;;;;;;;9.30;4.40;;;3.90;93.50;;;;;;5035390;28;20180;-86
2021/11/26 03:30:08;;;;;;;8.40;4.33;;;4.00;93.60;;;;;;5035392;28;20283;-86
2021/11/26 03:32:34;;;;;;;6.80;4.37;;;4.00;93.60;;;;;;5053212;28;20202;-86
2021/11/26 03:35:00;;;;;;;10.20;4.60;;;4.00;93.60;;;;;;5035285;28;20187;-86
2021/11/26 03:37:25;;;;;;;8.23;4.13;;;4.00;93.60;;;;;;5053058;28;20227;-86
2021/11/26 03:39:51;;;;;;;14.90;4.53;;;3.90;93.70;;;;;;5035363;28;20194;-86
2021/11/26 03:42:17;;;;;;;5.77;4.40;;;4.00;93.80;;;;;;5035162;28;20174;-86
2021/11/26 03:44:42;;;;;;;6.03;3.80;;;4.00;93.80;;;;;;5035273;28;20182;-86
2021/11/26 03:47:08;;;;;;;6.80;4.10;;;3.90;93.70;;;;;;5035185;28;20168;-86
2021/11/26 03:49:34;;;;;;;10.90;3.90;;;3.90;93.80;;;;;;5035066;28;20184;-86
2021/11/26 03:51:59;;;;;;;5.40;4.37;;;3.80;93.80;;;;;;5035082;28;20179;-86
2021/11/26 03:54:25;;;;;;;5.87;4.30;;;3.80;93.80;;;;;;5052905;28;20176;-86
2021/11/26 03:56:51;;;;;;;13.37;4.90;;;3.80;93.80;;;;;;5035098;28;20188;-86
2021/11/26 03:59:16;;;;;;;8.30;5.43;;;3.80;94.00;;;;;;5052812;28;20192;-86
2021/11/26 04:01:42;;;;;;;11.97;6.37;;;3.80;94.00;;;;;;5052856;28;20191;-86
2021/11/26 04:04:08;;;;;;;9.87;7.03;;;3.80;94.10;;;;;;5038081;28;20582;-85
2021/11/26 04:06:34;;;;;;;16.83;9.60;;;3.80;94.30;;;;;;5057420;28;20171;-85
2021/11/26 04:08:59;;;;;;;12.30;8.60;;;3.80;94.40;;;;;;5038945;28;20219;-85
2021/11/26 04:11:26;;;;;;;19.30;9.60;;;3.80;94.50;;;;;;5038618;28;20224;-85
2021/11/26 04:13:52;;;;;;;19.83;9.60;;;3.80;94.50;;;;;;5038920;28;20189;-85
2021/11/26 04:16:18;;;;;;;15.73;10.17;;;3.80;94.50;;;;;;5056612;28;20210;-85
2021/11/26 04:18:44;;;;;;;18.10;8.17;;;3.80;94.60;;;;;;5056414;28;20203;-85
2021/11/26 04:21:11;;;;;;;17.13;10.43;;;3.70;94.50;;;;;;5039036;28;20235;-85
2021/11/26 04:23:36;;;;;;;18.40;10.37;;;3.70;94.50;;;;;;5056482;28;20168;-85
2021/11/26 04:26:03;;;;;;;17.50;10.27;;;3.60;94.50;;;;;;5056777;28;20168;-85
2021/11/26 04:28:28;;;;;;;15.17;7.07;;;3.60;94.50;;;;;;5038548;28;20181;-85
2021/11/26 04:30:54;;;;;;;11.83;8.87;;;3.50;94.60;;;;;;5056358;28;20188;-85
2021/11/26 04:33:20;;;;;;;20.67;10.23;;;3.50;94.60;;;;;;5038716;28;20634;-85
2021/11/26 04:35:48;;;;;;;17.47;10.23;;;3.40;94.60;;;;;;5038579;28;20180;-85
2021/11/26 04:38:17;;;;;;;22.23;11.87;;;3.40;94.60;;;;;;5038235;28;20212;-85
2021/11/26 04:40:43;;;;;;;16.17;10.60;;;3.40;94.60;;;;;;5056120;28;20583;-85
2021/11/26 04:43:09;;;;;;;23.73;11.93;;;3.40;94.70;;;;;;5038173;28;20191;-85
2021/11/26 04:45:35;;;;;;;26.93;14.13;;;3.40;94.60;;;;;;5038210;28;20729;-85
2021/11/26 04:48:01;;;;;;;20.13;12.70;;;3.40;94.60;;;;;;5056051;28;20179;-85
2021/11/26 04:50:26;;;;;;;21.43;10.23;;;3.40;94.70;;;;;;5055901;28;20195;-85
2021/11/26 04:52:53;;;;;;;25.47;13.83;;;3.40;94.70;;;;;;5056261;28;20259;-85
2021/11/26 04:55:19;;;;;;;36.77;15.17;;;3.40;94.70;;;;;;5038034;28;20276;-85
2021/11/26 04:57:46;;;;;;;18.97;12.43;;;3.30;94.70;;;;;;5037930;28;20200;-85
2021/11/26 05:00:15;;;;;;;19.07;13.67;;;3.30;94.70;;;;;;5037794;28;20207;-85
2021/11/26 05:02:42;;;;;;;27.43;12.93;;;3.30;94.70;;;;;;5037928;28;20574;-85
2021/11/26 05:05:08;;;;;;;20.37;12.33;;;3.30;94.70;;;;;;5037836;28;20176;-85
2021/11/26 05:07:35;;;;;;;23.43;12.53;;;3.30;94.70;;;;;;5037706;28;20199;-85
2021/11/26 05:10:03;;;;;;;27.20;13.00;;;3.30;94.70;;;;;;5037593;28;20211;-85
2021/11/26 05:12:34;;;;;;;26.80;12.97;;;3.30;94.70;;;;;;5037765;28;20171;-85
2021/11/26 05:15:00;;;;;;;24.53;11.87;;;3.30;94.70;;;;;;5036595;28;20222;-85
2021/11/26 05:17:26;;;;;;;19.93;13.43;;;3.30;94.70;;;;;;5055277;28;20586;-85
2021/11/26 05:19:51;;;;;;;29.33;15.47;;;3.30;94.70;;;;;;5037525;28;20203;-85
2021/11/26 05:22:17;;;;;;;24.63;13.90;;;3.30;94.70;;;;;;5055354;28;20205;-85
2021/11/26 05:24:43;;;;;;;25.07;14.43;;;3.30;94.70;;;;;;5055508;28;20174;-85
2021/11/26 05:27:08;;;;;;;22.30;12.53;;;3.30;94.70;;;;;;5037361;28;20176;-85
2021/11/26 05:29:34;;;;;;;19.63;13.40;;;3.30;94.60;;;;;;5037326;28;20274;-85
2021/11/26 05:31:59;;;;;;;17.90;10.67;;;3.30;94.60;;;;;;5055254;28;20267;-85
2021/11/26 05:34:25;;;;;;;17.37;13.40;;;3.30;94.50;;;;;;5037419;28;20241;-85
2021/11/26 05:36:51;;;;;;;21.17;14.80;;;3.30;94.50;;;;;;5037323;28;20188;-85
2021/11/26 05:39:16;;;;;;;19.63;13.07;;;3.30;94.50;;;;;;5037077;28;20298;-85
2021/11/26 05:41:42;;;;;;;22.87;12.47;;;3.40;94.40;;;;;;5054940;28;20188;-85
2021/11/26 05:44:07;;;;;;;23.83;15.73;;;3.40;94.40;;;;;;5054921;28;20523;-85
2021/11/26 05:46:33;;;;;;;33.27;18.43;;;3.30;94.40;;;;;;5036909;28;20561;-85
2021/11/26 05:48:59;;;;;;;25.57;16.40;;;3.40;94.40;;;;;;5037042;28;20249;-86
2021/11/26 05:51:25;;;;;;;25.53;15.77;;;3.40;94.30;;;;;;5055103;28;20200;-85
2021/11/26 05:53:50;;;;;;;38.23;21.00;;;3.40;94.30;;;;;;5054697;28;20202;-85
2021/11/26 05:56:16;;;;;;;33.13;19.90;;;3.50;94.40;;;;;;5054644;28;20222;-85
2021/11/26 05:58:42;;;;;;;30.60;20.03;;;3.50;94.30;;;;;;5054585;28;20200;-85
2021/11/26 06:01:07;;;;;;;28.23;18.03;;;3.50;94.40;;;;;;5054519;28;20196;-85
2021/11/26 06:03:33;;;;;;;36.30;20.67;;;3.40;94.50;;;;;;5036794;28;20184;-85
2021/11/26 06:05:59;;;;;;;36.43;20.60;;;3.50;94.40;;;;;;5036768;28;20222;-85
2021/11/26 06:08:24;;;;;;;31.00;21.63;;;3.40;94.40;;;;;;5036653;28;20180;-85
2021/11/26 06:10:50;;;;;;;32.37;20.60;;;3.40;94.40;;;;;;5036330;28;20242;-85
2021/11/26 06:13:16;;;;;;;40.80;23.67;;;3.50;94.50;;;;;;5036553;28;20183;-85
2021/11/26 06:15:41;;;;;;;30.00;19.00;;;3.40;94.50;;;;;;5036565;28;20305;-85
2021/11/26 06:18:08;;;;;;;40.57;25.33;;;3.40;94.40;;;;;;5054214;28;20196;-85
2021/11/26 06:20:34;;;;;;;41.53;25.57;;;3.40;94.50;;;;;;5036370;28;20207;-85
2021/11/26 06:22:59;;;;;;;48.93;26.97;;;3.40;94.50;;;;;;5036369;28;20173;-85
2021/11/26 06:25:25;;;;;;;45.97;29.20;;;3.40;94.50;;;;;;5036110;28;20671;-85
2021/11/26 06:27:51;;;;;;;49.90;28.13;;;3.50;94.50;;;;;;5036199;28;20238;-85
2021/11/26 06:30:19;;;;;;;32.67;20.70;;;3.50;94.60;;;;;;5036153;28;20721;-85
2021/11/26 06:32:46;;;;;;;59.23;34.03;;;3.50;94.50;;;;;;5036179;28;20182;-85
2021/11/26 06:35:14;;;;;;;55.23;31.10;;;3.40;94.50;;;;;;5036171;28;20693;-85
2021/11/26 06:37:40;;;;;;;50.63;30.40;;;3.40;94.50;;;;;;5053774;28;20179;-85
2021/11/26 06:40:07;;;;;;;58.40;33.27;;;3.50;94.50;;;;;;5035927;28;20191;-85
2021/11/26 06:42:32;;;;;;;53.47;30.23;;;3.50;94.50;;;;;;5035971;28;20266;-85
2021/11/26 06:44:58;;;;;;;54.80;29.17;;;3.50;94.50;;;;;;5035908;28;20200;-85
2021/11/26 06:47:24;;;;;;;59.23;35.00;;;3.50;94.50;;;;;;5036102;28;20175;-85
2021/11/26 06:49:49;;;;;;;66.77;36.20;;;3.50;94.50;;;;;;5053594;28;20271;-85
2021/11/26 06:52:18;;;;;;;45.80;24.90;;;3.40;94.50;;;;;;5035843;28;20176;-85
2021/11/26 06:54:44;;;;;;;60.43;31.33;;;3.50;94.50;;;;;;5035852;28;20179;-85
2021/11/26 06:57:10;;;;;;;70.33;33.67;;;3.50;94.50;;;;;;5035799;28;20171;-85
2021/11/26 06:59:36;;;;;;;49.60;25.90;;;3.40;94.50;;;;;;5035633;28;20695;-85
2021/11/26 07:02:01;;;;;;;58.00;30.90;;;3.50;94.50;;;;;;5053543;28;20682;-85
2021/11/26 07:04:28;;;;;;;57.37;27.40;;;3.50;94.50;;;;;;5036101;28;20550;-86
2021/11/26 07:06:54;;;;;;;62.80;32.87;;;3.50;94.40;;;;;;5035560;28;20183;-85
2021/11/26 07:09:20;;;;;;;57.50;27.33;;;3.50;94.40;;;;;;5035442;28;20180;-85
2021/11/26 07:11:46;;;;;;;66.20;30.40;;;3.50;94.40;;;;;;5158691;22;20222;-89
2021/11/26 07:14:11;;;;;;;72.00;36.23;;;3.50;94.40;;;;;;5078385;28;20167;-88
2021/11/26 07:16:37;;;;;;;63.73;28.27;;;3.50;94.30;;;;;;5078496;28;20188;-89
2021/11/26 07:19:03;;;;;;;69.63;31.80;;;3.50;94.40;;;;;;5079164;28;20207;-89
2021/11/26 07:21:29;;;;;;;37.57;16.33;;;3.50;94.40;;;;;;5078313;28;20187;-88
2021/11/26 07:23:55;;;;;;;79.03;37.43;;;3.50;94.40;;;;;;5078692;28;20229;-89
2021/11/26 07:26:22;;;;;;;75.53;34.23;;;3.60;94.40;;;;;;5078933;28;20202;-88
2021/11/26 07:28:48;;;;;;;80.93;35.50;;;3.60;94.40;;;;;;5077829;28;20250;-89
2021/11/26 07:31:13;;;;;;;74.20;34.17;;;3.50;94.40;;;;;;5077825;28;20285;-89
2021/11/26 07:33:39;;;;;;;73.83;36.23;;;3.60;94.50;;;;;;5076800;28;20183;-89
2021/11/26 07:36:06;;;;;;;72.47;33.73;;;3.60;94.50;;;;;;5076892;28;20650;-88
2021/11/26 07:38:33;;;;;;;77.00;36.27;;;3.60;94.60;;;;;;5079703;28;20203;-88
2021/11/26 07:40:59;;;;;;;88.50;40.30;;;3.60;94.60;;;;;;5081691;28;20274;-89
2021/11/26 07:43:25;;;;;;;98.97;46.67;;;3.60;94.60;;;;;;5081352;28;20229;-89
2021/11/26 07:45:50;;;;;;;82.60;38.63;;;3.70;94.70;;;;;;5079256;28;20175;-89
2021/11/26 07:48:17;;;;;;;71.57;33.03;;;3.70;94.60;;;;;;5079199;28;20598;-89
2021/11/26 07:50:43;;;;;;;67.30;31.63;;;3.70;94.50;;;;;;5079872;28;20202;-89
2021/11/26 07:53:08;;;;;;;68.27;31.57;;;3.70;94.50;;;;;;5079340;28;20182;-88
2021/11/26 07:55:34;;;;;;;61.10;23.53;;;3.70;94.50;;;;;;5080590;28;20179;-89
2021/11/26 07:57:59;;;;;;;88.47;35.47;;;3.60;94.50;;;;;;5079947;28;20210;-88
2021/11/26 08:00:25;;;;;;;72.27;31.87;;;3.70;94.40;;;;;;5079809;28;20199;-88
2021/11/26 08:02:51;;;;;;;71.47;30.60;;;3.70;94.50;;;;;;5079847;28;20179;-88
2021/11/26 08:05:18;;;;;;;57.50;26.77;;;3.70;94.50;;;;;;5080827;28;20187;-88
2021/11/26 08:07:44;;;;;;;54.23;28.40;;;3.70;94.50;;;;;;5079587;28;20542;-88
2021/11/26 08:10:10;;;;;;;75.13;34.73;;;3.80;94.50;;;;;;5080933;28;20235;-88
2021/11/26 08:12:37;;;;;;;65.07;30.13;;;3.80;94.50;;;;;;5079512;28;20202;-88
2021/11/26 08:15:08;;;;;;;64.17;30.63;;;3.80;94.50;;;;;;5079870;28;20197;-88
2021/11/26 08:17:34;;;;;;;47.17;23.37;;;3.80;94.40;;;;;;5078964;28;20171;-89
2021/11/26 08:20:00;;;;;;;67.97;30.07;;;3.80;94.40;;;;;;5079171;28;20176;-88
2021/11/26 08:22:26;;;;;;;36.50;17.23;;;3.80;94.40;;;;;;5079782;28;20171;-88
2021/11/26 08:24:52;;;;;;;67.90;34.23;;;3.80;94.30;;;;;;5078480;28;20198;-89
2021/11/26 08:27:17;;;;;;;58.93;28.63;;;3.90;94.40;;;;;;5079234;28;20624;-89
2021/11/26 08:29:43;;;;;;;69.53;32.53;;;3.80;94.30;;;;;;5078987;28;20179;-88
2021/11/26 08:32:09;;;;;;;66.17;32.13;;;3.90;94.40;;;;;;5078541;28;20297;-88
2021/11/26 08:34:35;;;;;;;40.10;23.50;;;3.90;94.40;;;;;;5078514;28;20205;-89
2021/11/26 08:37:01;;;;;;;51.13;26.33;;;3.90;94.40;;;;;;5079441;28;20180;-89
2021/11/26 08:39:26;;;;;;;47.73;22.73;;;3.90;94.30;;;;;;5080496;28;20199;-89
2021/11/26 08:41:52;;;;;;;58.93;28.17;;;3.90;94.30;;;;;;5078972;28;20201;-88
2021/11/26 08:44:18;;;;;;;64.57;30.70;;;4.00;94.20;;;;;;5079689;28;20327;-88
2021/11/26 08:46:43;;;;;;;65.80;32.83;;;4.00;94.20;;;;;;5078994;28;20171;-88
2021/11/26 08:49:09;;;;;;;58.37;28.83;;;4.00;94.20;;;;;;5077426;28;20183;-88
2021/11/26 08:51:38;;;;;;;49.30;28.23;;;4.00;94.20;;;;;;5078288;28;20559;-88
2021/11/26 08:54:05;;;;;;;49.63;25.50;;;4.00;94.20;;;;;;5077690;28;20244;-88
2021/11/26 08:56:31;;;;;;;51.30;25.50;;;4.10;94.10;;;;;;5077965;28;20179;-89
2021/11/26 08:58:57;;;;;;;27.17;16.37;;;4.10;94.00;;;;;;5077372;28;20211;-89
2021/11/26 09:01:23;;;;;;;47.33;22.67;;;4.10;93.90;;;;;;5077861;28;20244;-89
2021/11/26 09:03:49;;;;;;;33.63;17.63;;;4.10;93.80;;;;;;5077744;28;20179;-88
2021/11/26 09:06:20;;;;;;;33.60;18.77;;;4.10;93.70;;;;;;5078698;28;20168;-88
2021/11/26 09:08:46;;;;;;;36.63;19.90;;;4.20;93.70;;;;;;5078605;28;20176;-88
2021/11/26 09:11:12;;;;;;;41.13;21.07;;;4.10;93.50;;;;;;5076527;28;20222;-89
2021/11/26 09:13:38;;;;;;;33.37;18.70;;;4.20;93.50;;;;;;5076163;28;20175;-88
2021/11/26 09:16:04;;;;;;;36.57;18.30;;;4.20;93.50;;;;;;5077711;28;20550;-89
2021/11/26 09:18:30;;;;;;;39.57;23.37;;;4.20;93.20;;;;;;5078631;28;20270;-88
2021/11/26 09:20:56;;;;;;;41.00;22.00;;;4.20;93.10;;;;;;5078056;28;20191;-88
2021/11/26 09:23:22;;;;;;;32.90;17.93;;;4.30;93.10;;;;;;5079047;28;20174;-88
2021/11/26 09:25:49;;;;;;;38.67;20.43;;;4.30;93.00;;;;;;5077752;28;20202;-88
2021/11/26 09:28:16;;;;;;;28.63;15.60;;;4.30;93.00;;;;;;5077367;28;20172;-89
2021/11/26 09:30:42;;;;;;;32.27;18.93;;;4.30;92.80;;;;;;5077747;28;20195;-88
2021/11/26 09:33:08;;;;;;;37.80;19.37;;;4.30;92.70;;;;;;5078179;28;20171;-88
2021/11/26 09:35:35;;;;;;;31.27;18.40;;;4.30;92.60;;;;;;5077196;28;20194;-88
2021/11/26 09:38:02;;;;;;;31.33;20.10;;;4.30;92.70;;;;;;5077208;28;20282;-88
2021/11/26 09:40:30;;;;;;;32.50;17.30;;;4.30;92.60;;;;;;5077214;28;20188;-88
2021/11/26 09:42:56;;;;;;;38.07;21.57;;;4.30;92.50;;;;;;5076355;28;20175;-88
2021/11/26 09:45:25;;;;;;;39.17;22.57;;;4.30;92.60;;;;;;5076099;28;20171;-88
2021/11/26 09:47:51;;;;;;;28.23;16.00;;;4.30;92.60;;;;;;5077356;28;20174;-88
2021/11/26 09:50:19;;;;;;;35.70;19.97;;;4.40;92.80;;;;;;5076606;28;20189;-88
2021/11/26 09:52:45;;;;;;;37.97;19.13;;;4.40;92.90;;;;;;5076689;28;20266;-88
2021/11/26 09:55:13;;;;;;;38.30;22.30;;;4.40;92.80;;;;;;5078029;28;20164;-88
2021/11/26 09:57:40;;;;;;;45.73;21.43;;;4.40;92.60;;;;;;5076719;28;20531;-89
2021/11/26 10:00:08;;;;;;;33.27;18.13;;;4.50;92.70;;;;;;5076989;28;20168;-88
2021/11/26 10:02:34;;;;;;;21.23;11.83;;;4.50;92.50;;;;;;5076133;28;20220;-88
2021/11/26 10:05:08;;;;;;;25.10;12.40;;;4.40;92.20;;;;;;5076262;28;20775;-88
2021/11/26 10:07:48;;;;;;;33.57;16.70;;;4.50;92.30;;;;;;5075895;28;20163;-88
2021/11/26 10:10:20;;;;;;;30.20;15.97;;;4.50;92.20;;;;;;5076467;28;20282;-88
2021/11/26 10:12:57;;;;;;;30.30;17.77;;;4.50;91.80;;;;;;5076558;28;20164;-88
2021/11/26 10:15:32;;;;;;;24.33;13.27;;;4.50;91.60;;;;;;5076164;28;20160;-88
2021/11/26 10:18:08;;;;;;;20.73;13.93;;;4.60;91.70;;;;;;5077196;28;20191;-88
2021/11/26 10:20:35;;;;;;;31.17;16.33;;;4.50;91.70;;;;;;5076186;28;20191;-88
2021/11/26 10:23:04;;;;;;;21.33;10.87;;;4.60;91.90;;;;;;5075577;28;20209;-88
2021/11/26 10:25:29;;;;;;;18.73;12.67;;;4.60;92.10;;;;;;5076850;28;20270;-88
2021/11/26 10:28:00;;;;;;;28.17;15.10;;;4.60;92.00;;;;;;5076246;28;20211;-88
2021/11/26 10:30:39;;;;;;;24.07;14.70;;;4.60;91.80;;;;;;5075423;28;20574;-88
2021/11/26 10:33:05;;;;;;;27.70;14.87;;;4.60;91.60;;;;;;5076929;28;20156;-88
2021/11/26 10:35:40;;;;;;;16.57;11.60;;;4.70;91.90;;;;;;5075213;28;20177;-88
2021/11/26 10:38:15;;;;;;;23.20;13.40;;;4.70;91.60;;;;;;5076969;28;20655;-88
2021/11/26 10:40:45;;;;;;;22.77;14.23;;;4.80;92.10;;;;;;5076018;28;20267;-88
2021/11/26 10:43:20;;;;;;;25.10;16.50;;;4.70;92.00;;;;;;5076505;28;20517;-88
2021/11/26 10:59:10;;;;;;;20.17;11.60;;;4.80;91.30;;;;;;5078260;28;20195;-87
2021/11/26 11:01:44;;;;;;;12.47;8.00;;;4.90;91.30;;;;;;5077605;28;20188;-88
2021/11/26 11:04:21;;;;;;;24.10;14.03;;;4.90;91.50;;;;;;5077986;28;20165;-88
2021/11/26 11:07:19;;;;;;;22.03;13.47;;;4.90;91.50;;;;;;5075375;28;20167;-88
2021/11/26 11:09:48;;;;;;;27.90;13.73;;;4.90;91.40;;;;;;5053432;28;20176;-88
2021/11/26 11:12:14;;;;;;;17.60;10.63;;;4.90;91.30;;;;;;5076036;28;20261;-87
2021/11/26 11:14:52;;;;;;;17.93;10.73;;;4.90;91.30;;;;;;5076756;28;20177;-88
2021/11/26 11:17:19;;;;;;;24.93;14.40;;;4.90;91.20;;;;;;5075250;28;20171;-87
2021/11/26 11:19:45;;;;;;;27.20;15.37;;;4.90;91.10;;;;;;5076140;28;20663;-88
2021/11/26 11:22:11;;;;;;;23.20;14.03;;;4.90;91.00;;;;;;5074189;28;20196;-90
2021/11/26 11:24:36;;;;;;;21.53;11.83;;;5.00;91.10;;;;;;5076401;28;20176;-88
2021/11/26 11:27:04;;;;;;;20.77;10.53;;;5.00;89.70;;;;;;5074806;28;20172;-87
2021/11/26 11:29:30;;;;;;;27.27;14.20;;;5.00;90.20;;;;;;5074648;28;20204;-88
2021/11/26 11:32:00;;;;;;;31.57;14.63;;;5.00;90.30;;;;;;5074647;28;20211;-88
2021/11/26 11:34:30;;;;;;;23.37;13.63;;;5.00;89.70;;;;;;5075216;28;20610;-88
2021/11/26 11:36:58;;;;;;;16.73;10.87;;;5.00;89.50;;;;;;5074925;28;20177;-88
2021/11/26 11:39:25;;;;;;;17.07;8.67;;;5.00;90.10;;;;;;5076668;28;20649;-87
2021/11/26 11:41:56;;;;;;;18.17;9.57;;;5.10;90.00;;;;;;5075757;28;20196;-87
2021/11/26 11:44:25;;;;;;;18.37;8.20;;;5.00;89.50;;;;;;5077068;28;20636;-88
2021/11/26 11:46:51;;;;;;;21.70;12.30;;;5.00;89.40;;;;;;5075209;28;20183;-88
2021/11/26 11:49:31;;;;;;;15.47;9.07;;;5.00;89.80;;;;;;5074745;28;20179;-88
2021/11/26 11:52:03;;;;;;;18.93;11.17;;;5.00;89.00;;;;;;5074811;28;20212;-88
2021/11/26 11:54:41;;;;;;;16.40;9.13;;;5.00;89.10;;;;;;5074949;28;20586;-87
2021/11/26 11:57:19;;;;;;;23.50;11.50;;;5.10;89.50;;;;;;5076140;28;20659;-87
2021/11/26 11:59:44;;;;;;;15.40;9.13;;;5.10;89.30;;;;;;5074493;28;20197;-87
2021/11/26 12:02:21;;;;;;;22.43;12.73;;;5.10;88.90;;;;;;5076827;28;20199;-88
2021/11/26 12:04:48;;;;;;;21.53;10.90;;;5.10;89.50;;;;;;5075425;28;20591;-87
2021/11/26 12:07:29;;;;;;;16.13;9.63;;;5.10;88.80;;;;;;5075057;28;20199;-87
2021/11/26 12:10:13;;;;;;;22.60;11.87;;;5.20;88.40;;;;;;5074063;28;20215;-88
2021/11/26 12:12:53;;;;;;;13.17;7.27;;;5.20;89.10;;;;;;5074165;28;20180;-87
2021/11/26 12:15:32;;;;;;;20.77;11.37;;;5.20;88.20;;;;;;5075046;28;20703;-87
2021/11/26 12:18:01;;;;;;;23.60;11.53;;;5.20;88.40;;;;;;5075311;28;20617;-87
2021/11/26 12:20:27;;;;;;;14.27;8.70;;;5.20;88.60;;;;;;5073237;28;20196;-88
2021/11/26 12:23:03;;;;;;;18.67;10.70;;;5.30;89.00;;;;;;5075456;28;20192;-87
2021/11/26 12:28:07;;;;;;;13.17;7.63;;;5.30;88.70;;;;;;5078926;28;20177;-87
2021/11/26 12:30:34;;;;;;;17.47;8.17;;;5.30;88.20;;;;;;5077204;28;20641;-87
2021/11/26 12:32:59;;;;;;;26.53;12.67;;;5.30;88.40;;;;;;5079119;28;20191;-88
2021/11/26 12:35:25;;;;;;;22.67;13.00;;;5.30;88.10;;;;;;5079939;28;20177;-88
2021/11/26 12:37:58;;;;;;;17.10;11.00;;;5.30;88.40;;;;;;5080272;28;20177;-88
2021/11/26 12:40:24;;;;;;;15.97;8.70;;;5.30;88.80;;;;;;5078882;28;20201;-87
2021/11/26 12:43:17;;;;;;;16.67;8.23;;;5.30;87.90;;;;;;5078536;28;20180;-87
2021/11/26 12:45:42;;;;;;;11.90;7.63;;;5.30;88.00;;;;;;5078465;28;20186;-87
2021/11/26 12:48:21;;;;;;;14.13;8.50;;;5.30;88.60;;;;;;5079434;28;20185;-87
2021/11/26 12:51:04;;;;;;;22.87;10.50;;;5.30;87.30;;;;;;5078002;28;20405;-86
2021/11/26 12:53:32;;;;;;;24.53;11.57;;;5.40;88.20;;;;;;5076357;28;20549;-87
2021/11/26 12:56:06;;;;;;;13.47;8.10;;;5.30;87.50;;;;;;5076945;28;20197;-87
2021/11/26 12:58:40;;;;;;;12.70;6.57;;;5.30;87.80;;;;;;5076971;28;20204;-91
2021/11/26 13:01:08;;;;;;;18.43;8.90;;;5.30;87.40;;;;;;5076204;28;20196;-90